sensor_id;sensor_type;location;lat;lon;timestamp;P1;durP1;ratioP1;P2;durP2;ratioP2
28587;SDS011;15787;49.662;10.162;2024-01-30T00:00:20;17.27;;;9.70;;
28587;SDS011;15787;49.662;10.162;2024-01-30T00:02:53;16.85;;;9.90;;
28587;SDS011;15787;49.662;10.162;2024-01-30T00:05:28;20.33;;;9.50;;
28587;SDS011;15787;49.662;10.162;2024-01-30T00:08:01;20.00;;;9.68;;
28587;SDS011;15787;49.662;10.162;2024-01-30T00:10:34;19.58;;;10.45;;
28587;SDS011;15787;49.662;10.162;2024-01-30T00:13:07;23.13;;;10.75;;
28587;SDS011;15787;49.662;10.162;2024-01-30T00:15:40;22.08;;;11.18;;
28587;SDS011;15787;49.662;10.162;2024-01-30T00:18:14;24.23;;;12.80;;
28587;SDS011;15787;49.662;10.162;2024-01-30T00:20:48;22.05;;;12.05;;
28587;SDS011;15787;49.662;10.162;2024-01-30T00:23:22;30.00;;;14.65;;
28587;SDS011;15787;49.662;10.162;2024-01-30T00:25:55;25.25;;;14.25;;
28587;SDS011;15787;49.662;10.162;2024-01-30T00:28:28;26.50;;;12.82;;
28587;SDS011;15787;49.662;10.162;2024-01-30T00:31:01;22.92;;;12.02;;
28587;SDS011;15787;49.662;10.162;2024-01-30T00:33:35;22.85;;;11.32;;
28587;SDS011;15787;49.662;10.162;2024-01-30T00:36:09;20.30;;;11.48;;
28587;SDS011;15787;49.662;10.162;2024-01-30T00:38:42;20.92;;;11.35;;
28587;SDS011;15787;49.662;10.162;2024-01-30T00:41:17;15.77;;;9.35;;
28587;SDS011;15787;49.662;10.162;2024-01-30T00:43:50;16.23;;;9.65;;
28587;SDS011;15787;49.662;10.162;2024-01-30T00:46:23;17.65;;;9.52;;
28587;SDS011;15787;49.662;10.162;2024-01-30T00:48:56;20.80;;;10.10;;
28587;SDS011;15787;49.662;10.162;2024-01-30T00:51:30;18.00;;;10.45;;
28587;SDS011;15787;49.662;10.162;2024-01-30T00:54:03;17.73;;;10.15;;
28587;SDS011;15787;49.662;10.162;2024-01-30T00:56:37;17.10;;;10.68;;
28587;SDS011;15787;49.662;10.162;2024-01-30T00:59:10;18.13;;;10.75;;
28587;SDS011;15787;49.662;10.162;2024-01-30T01:01:43;22.15;;;11.00;;
28587;SDS011;15787;49.662;10.162;2024-01-30T01:04:17;27.85;;;12.90;;
28587;SDS011;15787;49.662;10.162;2024-01-30T01:06:51;26.10;;;12.45;;
28587;SDS011;15787;49.662;10.162;2024-01-30T01:09:25;26.58;;;12.25;;
28587;SDS011;15787;49.662;10.162;2024-01-30T01:11:58;25.45;;;12.52;;
28587;SDS011;15787;49.662;10.162;2024-01-30T01:14:31;21.25;;;11.30;;
28587;SDS011;15787;49.662;10.162;2024-01-30T01:17:04;20.73;;;11.20;;
28587;SDS011;15787;49.662;10.162;2024-01-30T01:19:37;24.98;;;12.48;;
28587;SDS011;15787;49.662;10.162;2024-01-30T01:22:12;23.67;;;12.27;;
28587;SDS011;15787;49.662;10.162;2024-01-30T01:24:45;22.35;;;10.90;;
28587;SDS011;15787;49.662;10.162;2024-01-30T01:27:18;24.00;;;12.02;;
28587;SDS011;15787;49.662;10.162;2024-01-30T01:29:51;23.20;;;11.80;;
28587;SDS011;15787;49.662;10.162;2024-01-30T01:32:24;20.88;;;12.15;;
28587;SDS011;15787;49.662;10.162;2024-01-30T01:34:57;19.42;;;11.82;;
28587;SDS011;15787;49.662;10.162;2024-01-30T01:37:32;21.80;;;10.73;;
28587;SDS011;15787;49.662;10.162;2024-01-30T01:40:05;21.55;;;11.85;;
28587;SDS011;15787;49.662;10.162;2024-01-30T01:42:40;19.40;;;10.77;;
28587;SDS011;15787;49.662;10.162;2024-01-30T01:45:13;22.45;;;11.38;;
28587;SDS011;15787;49.662;10.162;2024-01-30T01:47:47;20.38;;;11.48;;
28587;SDS011;15787;49.662;10.162;2024-01-30T01:50:27;22.48;;;11.82;;
28587;SDS011;15787;49.662;10.162;2024-01-30T01:53:05;20.55;;;11.18;;
28587;SDS011;15787;49.662;10.162;2024-01-30T01:55:46;20.00;;;11.98;;
28587;SDS011;15787;49.662;10.162;2024-01-30T01:58:21;21.13;;;11.68;;
28587;SDS011;15787;49.662;10.162;2024-01-30T02:01:03;25.92;;;11.23;;
28587;SDS011;15787;49.662;10.162;2024-01-30T02:03:37;23.63;;;11.43;;
28587;SDS011;15787;49.662;10.162;2024-01-30T02:06:14;26.15;;;12.90;;
28587;SDS011;15787;49.662;10.162;2024-01-30T02:08:52;18.75;;;11.05;;
28587;SDS011;15787;49.662;10.162;2024-01-30T02:11:29;19.65;;;10.07;;
28587;SDS011;15787;49.662;10.162;2024-01-30T02:14:09;25.75;;;11.57;;
28587;SDS011;15787;49.662;10.162;2024-01-30T02:16:46;17.98;;;10.80;;
28587;SDS011;15787;49.662;10.162;2024-01-30T02:19:20;23.33;;;11.10;;
28587;SDS011;15787;49.662;10.162;2024-01-30T02:21:55;19.08;;;9.98;;
28587;SDS011;15787;49.662;10.162;2024-01-30T02:24:33;20.08;;;10.50;;
28587;SDS011;15787;49.662;10.162;2024-01-30T02:27:09;20.38;;;10.35;;
28587;SDS011;15787;49.662;10.162;2024-01-30T02:29:48;18.85;;;9.85;;
28587;SDS011;15787;49.662;10.162;2024-01-30T02:32:21;20.13;;;10.93;;
28587;SDS011;15787;49.662;10.162;2024-01-30T02:34:58;21.27;;;10.65;;
28587;SDS011;15787;49.662;10.162;2024-01-30T02:37:33;22.25;;;12.00;;
28587;SDS011;15787;49.662;10.162;2024-01-30T02:40:09;27.20;;;12.57;;
28587;SDS011;15787;49.662;10.162;2024-01-30T02:42:46;24.23;;;12.57;;
28587;SDS011;15787;49.662;10.162;2024-01-30T02:45:19;23.73;;;11.38;;
28587;SDS011;15787;49.662;10.162;2024-01-30T02:47:51;24.02;;;12.40;;
28587;SDS011;15787;49.662;10.162;2024-01-30T02:50:24;29.77;;;13.73;;
28587;SDS011;15787;49.662;10.162;2024-01-30T02:52:59;27.65;;;15.52;;
28587;SDS011;15787;49.662;10.162;2024-01-30T02:55:33;25.40;;;14.15;;
28587;SDS011;15787;49.662;10.162;2024-01-30T02:58:06;20.95;;;11.52;;
28587;SDS011;15787;49.662;10.162;2024-01-30T03:00:39;22.38;;;11.52;;
28587;SDS011;15787;49.662;10.162;2024-01-30T03:03:12;20.10;;;11.27;;
28587;SDS011;15787;49.662;10.162;2024-01-30T03:05:45;17.30;;;10.45;;
28587;SDS011;15787;49.662;10.162;2024-01-30T03:08:19;23.88;;;11.13;;
28587;SDS011;15787;49.662;10.162;2024-01-30T03:10:53;19.30;;;10.45;;
28587;SDS011;15787;49.662;10.162;2024-01-30T03:13:26;20.08;;;11.13;;
28587;SDS011;15787;49.662;10.162;2024-01-30T03:15:59;26.02;;;11.05;;
28587;SDS011;15787;49.662;10.162;2024-01-30T03:18:32;21.30;;;10.55;;
28587;SDS011;15787;49.662;10.162;2024-01-30T03:21:05;17.65;;;9.95;;
28587;SDS011;15787;49.662;10.162;2024-01-30T03:23:39;18.38;;;10.95;;
28587;SDS011;15787;49.662;10.162;2024-01-30T03:26:12;19.30;;;10.30;;
28587;SDS011;15787;49.662;10.162;2024-01-30T03:28:46;16.40;;;10.02;;
28587;SDS011;15787;49.662;10.162;2024-01-30T03:31:19;22.05;;;10.80;;
28587;SDS011;15787;49.662;10.162;2024-01-30T03:33:52;19.42;;;9.35;;
28587;SDS011;15787;49.662;10.162;2024-01-30T03:36:25;17.75;;;10.10;;
28587;SDS011;15787;49.662;10.162;2024-01-30T03:39:00;14.98;;;9.52;;
28587;SDS011;15787;49.662;10.162;2024-01-30T03:41:33;20.58;;;9.60;;
28587;SDS011;15787;49.662;10.162;2024-01-30T03:44:06;17.42;;;9.00;;
28587;SDS011;15787;49.662;10.162;2024-01-30T03:46:39;17.08;;;10.45;;
28587;SDS011;15787;49.662;10.162;2024-01-30T03:49:12;17.05;;;10.23;;
28587;SDS011;15787;49.662;10.162;2024-01-30T03:51:45;22.27;;;11.35;;
28587;SDS011;15787;49.662;10.162;2024-01-30T03:54:20;36.10;;;16.75;;
28587;SDS011;15787;49.662;10.162;2024-01-30T03:56:53;29.27;;;13.32;;
28587;SDS011;15787;49.662;10.162;2024-01-30T03:59:26;32.40;;;16.15;;
28587;SDS011;15787;49.662;10.162;2024-01-30T04:01:59;64.97;;;22.25;;
28587;SDS011;15787;49.662;10.162;2024-01-30T04:04:32;61.38;;;22.55;;
28587;SDS011;15787;49.662;10.162;2024-01-30T04:07:06;60.25;;;24.75;;
28587;SDS011;15787;49.662;10.162;2024-01-30T04:09:41;62.58;;;24.38;;
28587;SDS011;15787;49.662;10.162;2024-01-30T04:12:14;52.30;;;20.83;;
28587;SDS011;15787;49.662;10.162;2024-01-30T04:14:47;40.42;;;17.08;;
28587;SDS011;15787;49.662;10.162;2024-01-30T04:17:20;37.75;;;17.08;;
28587;SDS011;15787;49.662;10.162;2024-01-30T04:19:53;29.58;;;14.98;;
28587;SDS011;15787;49.662;10.162;2024-01-30T04:22:26;32.03;;;14.90;;
28587;SDS011;15787;49.662;10.162;2024-01-30T04:25:00;24.38;;;13.85;;
28587;SDS011;15787;49.662;10.162;2024-01-30T04:27:34;29.50;;;13.52;;
28587;SDS011;15787;49.662;10.162;2024-01-30T04:30:07;29.65;;;13.60;;
28587;SDS011;15787;49.662;10.162;2024-01-30T04:32:41;28.38;;;13.20;;
28587;SDS011;15787;49.662;10.162;2024-01-30T04:35:15;24.35;;;13.57;;
28587;SDS011;15787;49.662;10.162;2024-01-30T04:37:49;28.00;;;13.52;;
28587;SDS011;15787;49.662;10.162;2024-01-30T04:40:23;21.75;;;12.18;;
28587;SDS011;15787;49.662;10.162;2024-01-30T04:42:56;27.52;;;12.27;;
28587;SDS011;15787;49.662;10.162;2024-01-30T04:45:29;22.58;;;12.25;;
28587;SDS011;15787;49.662;10.162;2024-01-30T04:48:02;28.00;;;13.23;;
28587;SDS011;15787;49.662;10.162;2024-01-30T04:50:35;19.92;;;11.30;;
28587;SDS011;15787;49.662;10.162;2024-01-30T04:53:08;24.30;;;11.48;;
28587;SDS011;15787;49.662;10.162;2024-01-30T04:55:43;25.92;;;11.48;;
28587;SDS011;15787;49.662;10.162;2024-01-30T04:58:16;23.40;;;12.25;;
28587;SDS011;15787;49.662;10.162;2024-01-30T05:00:49;28.67;;;10.82;;
28587;SDS011;15787;49.662;10.162;2024-01-30T05:03:23;18.80;;;11.15;;
28587;SDS011;15787;49.662;10.162;2024-01-30T05:05:56;18.67;;;10.38;;
28587;SDS011;15787;49.662;10.162;2024-01-30T05:08:30;18.38;;;10.13;;
28587;SDS011;15787;49.662;10.162;2024-01-30T05:11:04;21.05;;;10.45;;
28587;SDS011;15787;49.662;10.162;2024-01-30T05:13:37;15.98;;;9.90;;
28587;SDS011;15787;49.662;10.162;2024-01-30T05:16:10;18.17;;;10.52;;
28587;SDS011;15787;49.662;10.162;2024-01-30T05:18:44;19.77;;;10.50;;
28587;SDS011;15787;49.662;10.162;2024-01-30T05:21:17;18.17;;;9.45;;
28587;SDS011;15787;49.662;10.162;2024-01-30T05:23:50;20.63;;;10.35;;
28587;SDS011;15787;49.662;10.162;2024-01-30T05:26:24;14.82;;;9.85;;
28587;SDS011;15787;49.662;10.162;2024-01-30T05:28:58;16.63;;;9.13;;
28587;SDS011;15787;49.662;10.162;2024-01-30T05:31:31;16.02;;;9.43;;
28587;SDS011;15787;49.662;10.162;2024-01-30T05:34:04;20.45;;;10.52;;
28587;SDS011;15787;49.662;10.162;2024-01-30T05:36:38;23.55;;;12.68;;
28587;SDS011;15787;49.662;10.162;2024-01-30T05:39:11;20.63;;;11.25;;
28587;SDS011;15787;49.662;10.162;2024-01-30T05:41:46;24.50;;;12.02;;
28587;SDS011;15787;49.662;10.162;2024-01-30T05:44:19;17.33;;;10.32;;
28587;SDS011;15787;49.662;10.162;2024-01-30T05:46:52;18.40;;;10.40;;
28587;SDS011;15787;49.662;10.162;2024-01-30T05:49:25;19.48;;;10.30;;
28587;SDS011;15787;49.662;10.162;2024-01-30T05:51:58;17.02;;;9.65;;
28587;SDS011;15787;49.662;10.162;2024-01-30T05:54:31;18.58;;;9.30;;
28587;SDS011;15787;49.662;10.162;2024-01-30T05:57:05;20.65;;;10.77;;
28587;SDS011;15787;49.662;10.162;2024-01-30T05:59:38;16.00;;;9.90;;
28587;SDS011;15787;49.662;10.162;2024-01-30T06:02:12;21.02;;;9.57;;
28587;SDS011;15787;49.662;10.162;2024-01-30T06:04:46;24.67;;;10.27;;
28587;SDS011;15787;49.662;10.162;2024-01-30T06:07:19;18.88;;;10.32;;
28587;SDS011;15787;49.662;10.162;2024-01-30T06:09:52;16.50;;;9.27;;
28587;SDS011;15787;49.662;10.162;2024-01-30T06:12:26;17.58;;;9.90;;
28587;SDS011;15787;49.662;10.162;2024-01-30T06:14:59;15.88;;;9.82;;
28587;SDS011;15787;49.662;10.162;2024-01-30T06:17:32;18.20;;;10.00;;
28587;SDS011;15787;49.662;10.162;2024-01-30T06:20:07;20.17;;;10.07;;
28587;SDS011;15787;49.662;10.162;2024-01-30T06:22:40;16.88;;;10.18;;
28587;SDS011;15787;49.662;10.162;2024-01-30T06:25:13;18.70;;;9.52;;
28587;SDS011;15787;49.662;10.162;2024-01-30T06:27:49;18.73;;;10.82;;
28587;SDS011;15787;49.662;10.162;2024-01-30T06:30:22;17.05;;;10.52;;
28587;SDS011;15787;49.662;10.162;2024-01-30T06:32:55;17.15;;;10.88;;
28587;SDS011;15787;49.662;10.162;2024-01-30T06:35:29;22.67;;;10.50;;
28587;SDS011;15787;49.662;10.162;2024-01-30T06:38:02;19.85;;;10.93;;
28587;SDS011;15787;49.662;10.162;2024-01-30T06:40:35;22.42;;;11.77;;
28587;SDS011;15787;49.662;10.162;2024-01-30T06:43:10;19.20;;;10.52;;
28587;SDS011;15787;49.662;10.162;2024-01-30T06:45:43;20.45;;;9.32;;
28587;SDS011;15787;49.662;10.162;2024-01-30T06:48:18;16.15;;;9.15;;
28587;SDS011;15787;49.662;10.162;2024-01-30T06:50:53;16.92;;;9.43;;
28587;SDS011;15787;49.662;10.162;2024-01-30T06:53:26;17.02;;;9.10;;
28587;SDS011;15787;49.662;10.162;2024-01-30T06:55:59;22.83;;;13.55;;
28587;SDS011;15787;49.662;10.162;2024-01-30T06:58:33;23.38;;;13.88;;
28587;SDS011;15787;49.662;10.162;2024-01-30T07:01:06;24.02;;;13.07;;
28587;SDS011;15787;49.662;10.162;2024-01-30T07:03:39;27.08;;;13.73;;
28587;SDS011;15787;49.662;10.162;2024-01-30T07:06:12;23.90;;;12.63;;
28587;SDS011;15787;49.662;10.162;2024-01-30T07:08:45;21.55;;;11.98;;
28587;SDS011;15787;49.662;10.162;2024-01-30T07:11:18;22.73;;;12.18;;
28587;SDS011;15787;49.662;10.162;2024-01-30T07:13:54;17.80;;;10.65;;
28587;SDS011;15787;49.662;10.162;2024-01-30T07:16:27;23.30;;;10.73;;
28587;SDS011;15787;49.662;10.162;2024-01-30T07:19:12;18.25;;;10.68;;
28587;SDS011;15787;49.662;10.162;2024-01-30T07:23:34;21.13;;;11.88;;
28587;SDS011;15787;49.662;10.162;2024-01-30T07:26:10;21.02;;;12.55;;
28587;SDS011;15787;49.662;10.162;2024-01-30T07:28:43;22.23;;;13.40;;
28587;SDS011;15787;49.662;10.162;2024-01-30T07:31:31;22.80;;;13.60;;
28587;SDS011;15787;49.662;10.162;2024-01-30T07:34:24;20.40;;;11.95;;
28587;SDS011;15787;49.662;10.162;2024-01-30T07:37:00;19.67;;;12.18;;
28587;SDS011;15787;49.662;10.162;2024-01-30T07:39:47;25.95;;;12.00;;
28587;SDS011;15787;49.662;10.162;2024-01-30T07:42:36;24.55;;;12.02;;
28587;SDS011;15787;49.662;10.162;2024-01-30T07:45:19;22.90;;;11.77;;
28587;SDS011;15787;49.662;10.162;2024-01-30T07:48:31;20.83;;;11.98;;
28587;SDS011;15787;49.662;10.162;2024-01-30T07:51:05;24.70;;;12.00;;
28587;SDS011;15787;49.662;10.162;2024-01-30T07:53:38;32.38;;;13.95;;
28587;SDS011;15787;49.662;10.162;2024-01-30T07:56:11;26.10;;;14.50;;
28587;SDS011;15787;49.662;10.162;2024-01-30T07:58:47;27.38;;;13.88;;
28587;SDS011;15787;49.662;10.162;2024-01-30T08:01:22;23.38;;;12.57;;
28587;SDS011;15787;49.662;10.162;2024-01-30T08:04:02;23.63;;;11.82;;
28587;SDS011;15787;49.662;10.162;2024-01-30T08:06:58;19.77;;;11.77;;
28587;SDS011;15787;49.662;10.162;2024-01-30T08:09:36;25.33;;;11.45;;
28587;SDS011;15787;49.662;10.162;2024-01-30T08:12:10;19.33;;;10.60;;
28587;SDS011;15787;49.662;10.162;2024-01-30T08:14:44;20.60;;;11.00;;
28587;SDS011;15787;49.662;10.162;2024-01-30T08:17:17;32.85;;;16.65;;
28587;SDS011;15787;49.662;10.162;2024-01-30T08:19:53;37.30;;;18.08;;
28587;SDS011;15787;49.662;10.162;2024-01-30T08:22:26;33.05;;;15.30;;
28587;SDS011;15787;49.662;10.162;2024-01-30T08:25:09;24.98;;;14.40;;
28587;SDS011;15787;49.662;10.162;2024-01-30T08:27:44;32.60;;;17.67;;
28587;SDS011;15787;49.662;10.162;2024-01-30T08:30:23;33.00;;;17.60;;
28587;SDS011;15787;49.662;10.162;2024-01-30T08:32:56;32.80;;;17.10;;
28587;SDS011;15787;49.662;10.162;2024-01-30T08:35:33;37.70;;;16.98;;
28587;SDS011;15787;49.662;10.162;2024-01-30T08:38:12;34.22;;;18.35;;
28587;SDS011;15787;49.662;10.162;2024-01-30T08:40:55;34.47;;;18.45;;
28587;SDS011;15787;49.662;10.162;2024-01-30T08:43:32;32.25;;;16.15;;
28587;SDS011;15787;49.662;10.162;2024-01-30T08:46:06;38.28;;;17.42;;
28587;SDS011;15787;49.662;10.162;2024-01-30T08:48:40;37.72;;;18.63;;
28587;SDS011;15787;49.662;10.162;2024-01-30T08:51:15;44.92;;;20.73;;
28587;SDS011;15787;49.662;10.162;2024-01-30T08:53:51;37.30;;;20.17;;
28587;SDS011;15787;49.662;10.162;2024-01-30T08:56:28;31.70;;;18.40;;
28587;SDS011;15787;49.662;10.162;2024-01-30T08:59:01;37.88;;;19.88;;
28587;SDS011;15787;49.662;10.162;2024-01-30T09:01:34;37.65;;;18.65;;
28587;SDS011;15787;49.662;10.162;2024-01-30T09:04:08;33.55;;;18.30;;
28587;SDS011;15787;49.662;10.162;2024-01-30T09:06:42;34.53;;;16.55;;
28587;SDS011;15787;49.662;10.162;2024-01-30T09:09:15;29.83;;;14.75;;
28587;SDS011;15787;49.662;10.162;2024-01-30T09:11:49;24.90;;;14.00;;
28587;SDS011;15787;49.662;10.162;2024-01-30T09:14:22;28.92;;;15.27;;
28587;SDS011;15787;49.662;10.162;2024-01-30T09:16:55;29.38;;;14.70;;
28587;SDS011;15787;49.662;10.162;2024-01-30T09:19:27;27.27;;;14.70;;
28587;SDS011;15787;49.662;10.162;2024-01-30T09:22:02;25.70;;;14.85;;
28587;SDS011;15787;49.662;10.162;2024-01-30T09:24:35;29.90;;;17.00;;
28587;SDS011;15787;49.662;10.162;2024-01-30T09:27:10;33.60;;;17.33;;
28587;SDS011;15787;49.662;10.162;2024-01-30T09:29:43;24.20;;;14.13;;
28587;SDS011;15787;49.662;10.162;2024-01-30T09:32:15;30.00;;;15.07;;
28587;SDS011;15787;49.662;10.162;2024-01-30T09:34:49;22.48;;;13.55;;
28587;SDS011;15787;49.662;10.162;2024-01-30T09:37:23;23.17;;;13.73;;
28587;SDS011;15787;49.662;10.162;2024-01-30T09:39:59;26.45;;;15.07;;
28587;SDS011;15787;49.662;10.162;2024-01-30T09:42:38;23.33;;;14.25;;
28587;SDS011;15787;49.662;10.162;2024-01-30T09:45:14;22.83;;;13.40;;
28587;SDS011;15787;49.662;10.162;2024-01-30T09:47:47;25.92;;;14.52;;
28587;SDS011;15787;49.662;10.162;2024-01-30T09:50:20;26.67;;;13.00;;
28587;SDS011;15787;49.662;10.162;2024-01-30T09:52:56;22.05;;;13.30;;
28587;SDS011;15787;49.662;10.162;2024-01-30T09:55:31;19.88;;;12.30;;
28587;SDS011;15787;49.662;10.162;2024-01-30T09:58:14;21.98;;;13.18;;
28587;SDS011;15787;49.662;10.162;2024-01-30T10:01:29;21.50;;;12.27;;
28587;SDS011;15787;49.662;10.162;2024-01-30T10:04:37;24.23;;;13.40;;
28587;SDS011;15787;49.662;10.162;2024-01-30T10:07:10;21.13;;;12.82;;
28587;SDS011;15787;49.662;10.162;2024-01-30T10:09:45;23.90;;;13.50;;
28587;SDS011;15787;49.662;10.162;2024-01-30T10:12:20;22.25;;;14.10;;
28587;SDS011;15787;49.662;10.162;2024-01-30T10:14:55;26.60;;;15.15;;
28587;SDS011;15787;49.662;10.162;2024-01-30T10:17:30;23.88;;;14.50;;
28587;SDS011;15787;49.662;10.162;2024-01-30T10:20:05;27.80;;;14.93;;
28587;SDS011;15787;49.662;10.162;2024-01-30T10:22:39;32.15;;;16.35;;
28587;SDS011;15787;49.662;10.162;2024-01-30T10:25:16;27.67;;;15.60;;
28587;SDS011;15787;49.662;10.162;2024-01-30T10:27:52;25.63;;;14.68;;
28587;SDS011;15787;49.662;10.162;2024-01-30T10:30:27;26.30;;;14.38;;
28587;SDS011;15787;49.662;10.162;2024-01-30T10:33:00;30.05;;;16.52;;
28587;SDS011;15787;49.662;10.162;2024-01-30T10:35:33;24.77;;;15.20;;
28587;SDS011;15787;49.662;10.162;2024-01-30T10:38:08;24.90;;;14.45;;
28587;SDS011;15787;49.662;10.162;2024-01-30T10:40:49;26.73;;;15.25;;
28587;SDS011;15787;49.662;10.162;2024-01-30T10:43:30;25.60;;;14.38;;
28587;SDS011;15787;49.662;10.162;2024-01-30T10:46:06;23.38;;;14.30;;
28587;SDS011;15787;49.662;10.162;2024-01-30T10:48:43;23.60;;;13.90;;
28587;SDS011;15787;49.662;10.162;2024-01-30T10:51:20;24.35;;;15.15;;
28587;SDS011;15787;49.662;10.162;2024-01-30T10:53:55;24.05;;;13.68;;
28587;SDS011;15787;49.662;10.162;2024-01-30T10:56:31;27.65;;;16.25;;
28587;SDS011;15787;49.662;10.162;2024-01-30T10:59:05;22.55;;;13.80;;
28587;SDS011;15787;49.662;10.162;2024-01-30T11:01:42;21.55;;;14.75;;
28587;SDS011;15787;49.662;10.162;2024-01-30T11:04:16;24.75;;;14.80;;
28587;SDS011;15787;49.662;10.162;2024-01-30T11:06:49;25.10;;;14.43;;
28587;SDS011;15787;49.662;10.162;2024-01-30T11:09:22;22.65;;;13.70;;
28587;SDS011;15787;49.662;10.162;2024-01-30T11:11:57;22.80;;;14.07;;
28587;SDS011;15787;49.662;10.162;2024-01-30T11:14:32;23.08;;;13.57;;
28587;SDS011;15787;49.662;10.162;2024-01-30T11:17:06;21.95;;;12.27;;
28587;SDS011;15787;49.662;10.162;2024-01-30T11:19:41;23.58;;;13.60;;
28587;SDS011;15787;49.662;10.162;2024-01-30T11:22:15;20.38;;;12.70;;
28587;SDS011;15787;49.662;10.162;2024-01-30T11:24:48;25.88;;;13.57;;
28587;SDS011;15787;49.662;10.162;2024-01-30T11:27:50;24.27;;;12.95;;
28587;SDS011;15787;49.662;10.162;2024-01-30T11:30:29;25.73;;;13.20;;
28587;SDS011;15787;49.662;10.162;2024-01-30T11:33:03;25.70;;;14.10;;
28587;SDS011;15787;49.662;10.162;2024-01-30T11:35:39;25.45;;;13.40;;
28587;SDS011;15787;49.662;10.162;2024-01-30T11:38:14;22.50;;;14.05;;
28587;SDS011;15787;49.662;10.162;2024-01-30T11:40:55;22.83;;;14.75;;
28587;SDS011;15787;49.662;10.162;2024-01-30T11:43:31;24.63;;;15.80;;
28587;SDS011;15787;49.662;10.162;2024-01-30T11:46:06;29.38;;;16.80;;
28587;SDS011;15787;49.662;10.162;2024-01-30T11:48:41;27.48;;;16.73;;
28587;SDS011;15787;49.662;10.162;2024-01-30T11:51:15;23.80;;;15.18;;
28587;SDS011;15787;49.662;10.162;2024-01-30T11:53:59;19.92;;;13.25;;
28587;SDS011;15787;49.662;10.162;2024-01-30T11:56:50;25.20;;;13.60;;
28587;SDS011;15787;49.662;10.162;2024-01-30T11:59:25;23.33;;;13.30;;
28587;SDS011;15787;49.662;10.162;2024-01-30T12:02:01;24.27;;;12.48;;
28587;SDS011;15787;49.662;10.162;2024-01-30T12:04:40;24.85;;;13.13;;
28587;SDS011;15787;49.662;10.162;2024-01-30T12:07:14;23.60;;;13.68;;
28587;SDS011;15787;49.662;10.162;2024-01-30T12:09:52;22.45;;;13.18;;
28587;SDS011;15787;49.662;10.162;2024-01-30T12:12:36;23.88;;;13.07;;
28587;SDS011;15787;49.662;10.162;2024-01-30T12:15:18;21.65;;;12.82;;
28587;SDS011;15787;49.662;10.162;2024-01-30T12:18:03;27.70;;;14.05;;
28587;SDS011;15787;49.662;10.162;2024-01-30T12:23:41;23.50;;;13.18;;
28587;SDS011;15787;49.662;10.162;2024-01-30T12:26:15;27.00;;;14.75;;
28587;SDS011;15787;49.662;10.162;2024-01-30T12:28:56;26.05;;;14.05;;
28587;SDS011;15787;49.662;10.162;2024-01-30T12:31:47;24.15;;;14.50;;
28587;SDS011;15787;49.662;10.162;2024-01-30T12:34:24;26.02;;;13.98;;
28587;SDS011;15787;49.662;10.162;2024-01-30T12:37:22;28.60;;;14.50;;
28587;SDS011;15787;49.662;10.162;2024-01-30T12:40:01;23.45;;;14.18;;
28587;SDS011;15787;49.662;10.162;2024-01-30T12:42:41;27.23;;;16.17;;
28587;SDS011;15787;49.662;10.162;2024-01-30T12:45:14;28.33;;;16.75;;
28587;SDS011;15787;49.662;10.162;2024-01-30T12:47:49;22.73;;;14.20;;
28587;SDS011;15787;49.662;10.162;2024-01-30T12:50:23;24.95;;;14.10;;
28587;SDS011;15787;49.662;10.162;2024-01-30T12:52:56;20.30;;;13.02;;
28587;SDS011;15787;49.662;10.162;2024-01-30T12:55:30;22.40;;;13.50;;
28587;SDS011;15787;49.662;10.162;2024-01-30T12:58:06;20.58;;;12.98;;
28587;SDS011;15787;49.662;10.162;2024-01-30T13:00:39;20.42;;;13.48;;
28587;SDS011;15787;49.662;10.162;2024-01-30T13:03:21;21.42;;;13.23;;
28587;SDS011;15787;49.662;10.162;2024-01-30T13:05:55;25.17;;;14.88;;
28587;SDS011;15787;49.662;10.162;2024-01-30T13:08:28;23.13;;;14.43;;
28587;SDS011;15787;49.662;10.162;2024-01-30T13:11:01;28.73;;;14.60;;
28587;SDS011;15787;49.662;10.162;2024-01-30T13:13:34;22.75;;;14.60;;
28587;SDS011;15787;49.662;10.162;2024-01-30T13:16:07;26.38;;;14.10;;
28587;SDS011;15787;49.662;10.162;2024-01-30T13:18:42;23.58;;;14.15;;
28587;SDS011;15787;49.662;10.162;2024-01-30T13:21:16;31.45;;;16.02;;
28587;SDS011;15787;49.662;10.162;2024-01-30T13:23:49;28.35;;;15.38;;
28587;SDS011;15787;49.662;10.162;2024-01-30T13:26:24;23.73;;;14.63;;
28587;SDS011;15787;49.662;10.162;2024-01-30T13:28:58;23.40;;;14.52;;
28587;SDS011;15787;49.662;10.162;2024-01-30T13:31:31;25.63;;;15.52;;
28587;SDS011;15787;49.662;10.162;2024-01-30T13:38:54;24.25;;;13.88;;
28587;SDS011;15787;49.662;10.162;2024-01-30T13:41:27;22.33;;;14.43;;
28587;SDS011;15787;49.662;10.162;2024-01-30T13:47:03;21.88;;;14.27;;
28587;SDS011;15787;49.662;10.162;2024-01-30T13:49:36;22.80;;;14.55;;
28587;SDS011;15787;49.662;10.162;2024-01-30T13:52:09;24.02;;;14.73;;
28587;SDS011;15787;49.662;10.162;2024-01-30T13:54:43;26.58;;;15.05;;
28587;SDS011;15787;49.662;10.162;2024-01-30T13:57:16;23.17;;;14.50;;
28587;SDS011;15787;49.662;10.162;2024-01-30T13:59:49;29.08;;;14.60;;
28587;SDS011;15787;49.662;10.162;2024-01-30T14:02:22;20.02;;;10.32;;
28587;SDS011;15787;49.662;10.162;2024-01-30T14:04:55;15.18;;;10.00;;
28587;SDS011;15787;49.662;10.162;2024-01-30T14:07:28;16.38;;;7.97;;
28587;SDS011;15787;49.662;10.162;2024-01-30T14:10:04;12.40;;;6.13;;
28587;SDS011;15787;49.662;10.162;2024-01-30T14:12:42;10.02;;;6.22;;
28587;SDS011;15787;49.662;10.162;2024-01-30T14:15:16;10.45;;;5.57;;
28587;SDS011;15787;49.662;10.162;2024-01-30T14:17:59;13.20;;;8.02;;
28587;SDS011;15787;49.662;10.162;2024-01-30T14:20:32;16.38;;;8.77;;
28587;SDS011;15787;49.662;10.162;2024-01-30T14:23:06;15.60;;;9.82;;
28587;SDS011;15787;49.662;10.162;2024-01-30T14:25:40;14.23;;;8.77;;
28587;SDS011;15787;49.662;10.162;2024-01-30T14:28:13;16.02;;;8.40;;
28587;SDS011;15787;49.662;10.162;2024-01-30T14:30:47;15.02;;;7.55;;
28587;SDS011;15787;49.662;10.162;2024-01-30T14:33:20;9.63;;;5.70;;
28587;SDS011;15787;49.662;10.162;2024-01-30T14:35:53;11.65;;;6.03;;
28587;SDS011;15787;49.662;10.162;2024-01-30T14:38:26;9.25;;;5.72;;
28587;SDS011;15787;49.662;10.162;2024-01-30T14:41:01;9.80;;;5.15;;
28587;SDS011;15787;49.662;10.162;2024-01-30T14:43:35;8.30;;;5.57;;
28587;SDS011;15787;49.662;10.162;2024-01-30T14:46:09;11.70;;;6.18;;
28587;SDS011;15787;49.662;10.162;2024-01-30T14:48:42;7.88;;;3.88;;
28587;SDS011;15787;49.662;10.162;2024-01-30T14:51:15;8.15;;;4.20;;
28587;SDS011;15787;49.662;10.162;2024-01-30T14:53:48;8.00;;;3.88;;
28587;SDS011;15787;49.662;10.162;2024-01-30T14:56:23;7.43;;;4.30;;
28587;SDS011;15787;49.662;10.162;2024-01-30T14:59:03;7.22;;;3.83;;
28587;SDS011;15787;49.662;10.162;2024-01-30T15:01:38;6.50;;;3.58;;
28587;SDS011;15787;49.662;10.162;2024-01-30T15:04:11;6.28;;;3.45;;
28587;SDS011;15787;49.662;10.162;2024-01-30T15:06:45;7.32;;;4.18;;
28587;SDS011;15787;49.662;10.162;2024-01-30T15:09:19;6.63;;;3.65;;